Time;durP1;ratioP1;P1;durP2;ratioP2;P2;SDS_P1;SDS_P2;PMS_P1;PMS_P2;Temp;Humidity;BMP_temperature;BMP_pressure;BME280_temperature;BME280_humidity;BME280_pressure;Samples;Min_cycle;Max_cycle;Signal;HPM_P1;HPM_P2
2023/06/18 00:01:18;;;;;;;4.80;1.80;;;13.70;99.90;;;;;;4937142;29;20660;-89
2023/06/18 00:03:52;;;;;;;3.83;1.63;;;13.70;99.90;;;;;;4935766;29;20208;-87
2023/06/18 00:06:25;;;;;;;5.83;1.90;;;13.60;99.90;;;;;;4936952;29;20337;-86
2023/06/18 00:08:57;;;;;;;2.87;1.80;;;13.70;99.90;;;;;;4931186;29;20209;-87
2023/06/18 00:11:28;;;;;;;2.83;1.90;;;13.70;99.90;;;;;;4936351;29;20220;-88
2023/06/18 00:14:00;;;;;;;5.67;2.00;;;13.70;99.90;;;;;;4937642;29;20208;-88
2023/06/18 00:16:32;;;;;;;5.30;2.60;;;13.70;99.90;;;;;;4936913;29;20493;-88
2023/06/18 00:19:06;;;;;;;4.30;2.20;;;13.70;99.90;;;;;;4936937;29;20668;-89
2023/06/18 00:21:38;;;;;;;7.23;2.13;;;13.70;99.90;;;;;;4935562;29;20227;-89
2023/06/18 00:24:09;;;;;;;5.67;1.90;;;13.50;99.90;;;;;;4933067;29;20218;-88
2023/06/18 00:26:41;;;;;;;3.63;1.90;;;13.50;99.90;;;;;;4933384;29;20673;-88
2023/06/18 00:29:12;;;;;;;3.07;2.00;;;13.50;99.90;;;;;;4927783;29;20218;-88
2023/06/18 00:31:43;;;;;;;3.67;1.73;;;13.50;99.90;;;;;;4933718;29;20213;-88
2023/06/18 00:34:17;;;;;;;3.77;2.00;;;13.40;99.90;;;;;;4933875;29;20667;-89
2023/06/18 00:36:50;;;;;;;5.30;2.10;;;13.40;99.90;;;;;;4930291;29;20200;-88
2023/06/18 00:39:22;;;;;;;4.67;2.00;;;13.40;99.90;;;;;;4924389;29;20240;-88
2023/06/18 00:41:54;;;;;;;6.60;2.00;;;13.40;99.90;;;;;;4930944;29;20215;-88
2023/06/18 00:44:27;;;;;;;5.03;2.10;;;13.40;99.90;;;;;;4936600;29;20208;-89
2023/06/18 00:46:59;;;;;;;3.40;1.73;;;13.30;99.90;;;;;;4936532;29;20302;-88
2023/06/18 00:49:33;;;;;;;3.77;1.80;;;13.30;99.90;;;;;;4932852;29;20204;-88
2023/06/18 00:52:06;;;;;;;6.80;2.30;;;13.40;99.90;;;;;;4930789;29;20212;-88
2023/06/18 00:54:39;;;;;;;4.47;2.00;;;13.40;99.90;;;;;;4935790;29;20216;-87
2023/06/18 00:57:13;;;;;;;3.97;2.17;;;13.40;99.90;;;;;;4936154;29;20240;-87
2023/06/18 00:59:46;;;;;;;4.03;1.60;;;13.50;99.90;;;;;;4927892;29;20236;-85
2023/06/18 01:02:25;;;;;;;4.03;1.70;;;13.50;99.90;;;;;;4932265;29;20206;-87
2023/06/18 01:05:09;;;;;;;2.43;1.77;;;13.50;99.90;;;;;;4938093;29;20232;-85
2023/06/18 01:07:41;;;;;;;3.00;1.67;;;13.40;99.90;;;;;;4936890;29;20723;-86
2023/06/18 01:10:20;;;;;;;4.30;2.00;;;13.40;99.90;;;;;;4950319;29;21932;-87
2023/06/18 01:12:54;;;;;;;5.50;2.50;;;13.40;99.90;;;;;;4948253;29;20208;-87
2023/06/18 01:15:26;;;;;;;7.03;2.50;;;13.30;99.90;;;;;;4942075;29;20208;-87
2023/06/18 01:17:59;;;;;;;5.80;2.80;;;13.30;99.90;;;;;;4932433;29;20235;-87
2023/06/18 01:20:32;;;;;;;6.03;2.30;;;13.20;99.90;;;;;;4932203;29;20309;-88
2023/06/18 01:23:06;;;;;;;6.13;2.33;;;13.20;99.90;;;;;;4932755;29;20232;-87
2023/06/18 01:25:38;;;;;;;5.80;2.60;;;13.20;99.90;;;;;;4919581;29;20205;-90
2023/06/18 01:28:10;;;;;;;6.37;2.07;;;13.20;99.90;;;;;;4931795;29;20585;-92
2023/06/18 01:30:42;;;;;;;3.40;2.13;;;13.10;99.90;;;;;;4937656;29;20306;-89
2023/06/18 01:33:14;;;;;;;4.97;2.20;;;13.20;99.90;;;;;;4936133;29;20234;-88
2023/06/18 01:35:47;;;;;;;7.87;2.40;;;13.20;99.90;;;;;;4935709;29;20299;-88
2023/06/18 01:38:34;;;;;;;4.70;2.50;;;13.20;99.90;;;;;;4934647;29;20209;-88
2023/06/18 01:41:13;;;;;;;4.00;2.10;;;13.20;99.90;;;;;;4936050;29;20335;-87
2023/06/18 01:43:50;;;;;;;4.47;2.20;;;13.20;99.90;;;;;;4926968;29;20205;-87
2023/06/18 01:46:23;;;;;;;4.87;2.37;;;13.20;99.90;;;;;;4928774;29;20204;-88
2023/06/18 01:48:59;;;;;;;6.53;2.30;;;13.20;99.90;;;;;;4917449;29;20682;-89
2023/06/18 01:51:39;;;;;;;4.17;1.80;;;13.20;99.90;;;;;;4937760;29;20220;-88
2023/06/18 01:54:12;;;;;;;4.10;1.90;;;13.20;99.90;;;;;;4945019;28;20220;-88
2023/06/18 01:56:44;;;;;;;4.17;2.00;;;13.10;99.90;;;;;;4919120;29;20296;-86
2023/06/18 01:59:16;;;;;;;4.63;2.37;;;13.10;99.90;;;;;;4919273;29;20240;-87
2023/06/18 02:01:47;;;;;;;3.30;1.90;;;13.10;99.90;;;;;;4932855;29;20220;-88
2023/06/18 02:04:19;;;;;;;4.10;1.77;;;13.10;99.90;;;;;;4939558;29;20208;-87
2023/06/18 02:06:52;;;;;;;4.17;2.00;;;13.10;99.90;;;;;;4940869;29;20205;-88
2023/06/18 02:09:24;;;;;;;3.93;2.10;;;13.10;99.90;;;;;;4927082;29;20216;-86
2023/06/18 02:11:56;;;;;;;3.10;2.03;;;13.10;99.90;;;;;;4923862;29;20232;-87
2023/06/18 02:14:27;;;;;;;4.77;1.70;;;13.10;99.90;;;;;;4941538;29;20217;-86
2023/06/18 02:16:59;;;;;;;5.10;2.27;;;13.10;99.90;;;;;;4941389;29;20303;-86
2023/06/18 02:19:30;;;;;;;3.40;1.87;;;13.00;99.90;;;;;;4939778;29;20242;-87
2023/06/18 02:22:04;;;;;;;4.07;1.97;;;13.00;99.90;;;;;;4938592;29;20220;-88
2023/06/18 02:24:36;;;;;;;5.63;2.23;;;13.00;99.90;;;;;;4921063;29;20213;-86
2023/06/18 02:27:08;;;;;;;5.17;2.40;;;13.00;99.90;;;;;;4933792;29;20250;-88
2023/06/18 02:29:40;;;;;;;6.73;1.90;;;13.00;99.90;;;;;;4958546;28;20290;-88
2023/06/18 02:32:12;;;;;;;6.50;2.17;;;12.90;99.90;;;;;;4960341;28;20219;-88
2023/06/18 02:34:44;;;;;;;5.60;2.60;;;12.80;99.90;;;;;;4959722;29;20207;-87
2023/06/18 02:37:18;;;;;;;6.40;2.10;;;12.80;99.90;;;;;;4943327;28;20201;-88
2023/06/18 02:39:49;;;;;;;5.37;2.10;;;12.70;99.90;;;;;;4925855;29;20235;-88
2023/06/18 02:42:22;;;;;;;6.43;2.40;;;12.80;99.90;;;;;;4927698;29;20211;-88
2023/06/18 02:44:54;;;;;;;7.07;2.20;;;12.70;99.90;;;;;;4941376;29;20310;-89
2023/06/18 02:47:25;;;;;;;4.93;2.10;;;12.70;99.90;;;;;;4939643;29;20649;-89
2023/06/18 02:49:58;;;;;;;5.57;2.10;;;12.80;99.90;;;;;;4924397;29;20201;-89
2023/06/18 02:52:31;;;;;;;6.50;2.30;;;12.80;99.90;;;;;;4920652;29;21080;-88
2023/06/18 02:55:03;;;;;;;10.37;3.03;;;12.70;99.90;;;;;;4937362;29;20216;-89
2023/06/18 02:57:35;;;;;;;10.83;2.70;;;12.70;99.90;;;;;;4937098;29;20262;-88
2023/06/18 03:00:09;;;;;;;6.60;2.53;;;12.70;99.90;;;;;;4938653;29;20270;-89
2023/06/18 03:02:41;;;;;;;4.17;2.70;;;12.70;99.90;;;;;;4935715;29;20652;-87
2023/06/18 03:05:13;;;;;;;5.13;2.40;;;12.60;99.90;;;;;;4938490;29;20292;-86
2023/06/18 03:07:45;;;;;;;11.27;2.77;;;12.60;99.90;;;;;;4931856;29;20209;-88
2023/06/18 03:10:17;;;;;;;6.03;3.10;;;12.50;99.90;;;;;;4935832;29;20208;-87
2023/06/18 03:12:48;;;;;;;8.70;2.80;;;12.50;99.90;;;;;;4932201;29;20205;-87
2023/06/18 03:15:20;;;;;;;6.30;2.73;;;12.50;99.90;;;;;;4923620;29;20211;-87
2023/06/18 03:17:51;;;;;;;5.67;2.97;;;12.50;99.90;;;;;;4931304;29;20286;-87
2023/06/18 03:20:23;;;;;;;5.23;2.67;;;12.50;99.90;;;;;;4927262;29;20247;-88
2023/06/18 03:22:56;;;;;;;8.07;2.63;;;12.40;99.90;;;;;;4938302;29;20216;-88
2023/06/18 03:25:27;;;;;;;7.93;2.87;;;12.30;99.90;;;;;;4938368;29;20706;-87
2023/06/18 03:27:59;;;;;;;6.53;2.50;;;12.30;99.90;;;;;;4935963;29;20576;-87
2023/06/18 03:30:30;;;;;;;6.07;2.73;;;12.30;99.90;;;;;;4937239;29;20212;-89
2023/06/18 03:33:03;;;;;;;7.13;2.80;;;12.20;99.90;;;;;;4937422;29;20220;-88
2023/06/18 03:35:36;;;;;;;8.53;3.00;;;12.20;99.90;;;;;;4944512;29;20248;-88
2023/06/18 03:38:10;;;;;;;7.90;2.93;;;12.10;99.90;;;;;;4940503;29;20207;-89
2023/06/18 03:40:42;;;;;;;6.17;2.63;;;12.10;99.90;;;;;;4938335;29;20254;-89
2023/06/18 03:43:14;;;;;;;7.13;3.40;;;12.10;99.90;;;;;;4938599;29;20204;-88
2023/06/18 03:45:45;;;;;;;6.07;2.97;;;12.10;99.90;;;;;;4938270;29;20216;-88
2023/06/18 03:48:17;;;;;;;9.93;3.13;;;12.00;99.90;;;;;;4957455;29;20215;-88
2023/06/18 03:50:49;;;;;;;6.47;3.17;;;12.00;99.90;;;;;;4918570;29;20201;-88
2023/06/18 03:53:24;;;;;;;7.50;3.67;;;12.00;99.90;;;;;;4938377;28;20258;-88
2023/06/18 03:55:56;;;;;;;11.50;3.40;;;11.90;99.90;;;;;;4948079;28;20248;-87
2023/06/18 03:58:28;;;;;;;6.20;3.17;;;11.90;99.90;;;;;;4946951;28;20215;-88
2023/06/18 04:01:00;;;;;;;8.37;3.37;;;11.90;99.90;;;;;;4947790;29;20268;-89
2023/06/18 04:03:31;;;;;;;7.43;3.03;;;11.80;99.90;;;;;;4932331;29;20552;-89
2023/06/18 04:06:03;;;;;;;7.83;3.40;;;11.80;99.90;;;;;;4940923;29;20209;-87
2023/06/18 04:08:37;;;;;;;8.73;3.17;;;11.80;99.90;;;;;;4936928;29;20212;-86
2023/06/18 04:11:09;;;;;;;10.37;3.13;;;11.70;99.90;;;;;;4937720;29;20204;-87
2023/06/18 04:13:41;;;;;;;8.37;2.77;;;11.70;99.90;;;;;;4937177;29;20220;-88
2023/06/18 04:16:12;;;;;;;10.00;3.67;;;11.80;99.90;;;;;;4937799;29;20212;-88
2023/06/18 04:18:43;;;;;;;6.07;3.07;;;11.70;99.90;;;;;;4927273;29;20292;-88
2023/06/18 04:21:15;;;;;;;8.90;3.70;;;11.80;99.90;;;;;;4918523;29;20248;-88
2023/06/18 04:23:48;;;;;;;5.93;3.03;;;11.70;99.90;;;;;;4927534;29;20311;-87
2023/06/18 04:26:19;;;;;;;6.73;3.00;;;11.70;99.90;;;;;;4937320;29;20275;-88
2023/06/18 04:28:51;;;;;;;7.40;2.87;;;11.70;99.90;;;;;;4936088;29;20203;-86
2023/06/18 04:31:23;;;;;;;6.23;3.20;;;11.60;99.90;;;;;;4920497;29;20231;-87
2023/06/18 04:33:55;;;;;;;6.30;3.50;;;11.60;99.90;;;;;;4918968;29;20292;-88
2023/06/18 04:36:27;;;;;;;9.67;3.30;;;11.60;99.90;;;;;;4921283;29;20224;-89
2023/06/18 04:39:00;;;;;;;7.70;3.13;;;11.50;99.90;;;;;;4918565;29;20213;-89
2023/06/18 04:41:33;;;;;;;6.27;3.40;;;11.50;99.90;;;;;;4919040;29;20247;-88
2023/06/18 04:44:05;;;;;;;5.07;2.40;;;11.60;99.90;;;;;;4918554;29;20213;-88
2023/06/18 04:46:36;;;;;;;7.50;3.20;;;11.50;99.90;;;;;;4919688;29;20244;-89
2023/06/18 04:49:08;;;;;;;6.57;2.93;;;11.50;99.90;;;;;;4937573;29;20211;-91
2023/06/18 04:51:42;;;;;;;9.13;2.97;;;11.50;99.90;;;;;;4945402;28;20216;-90
2023/06/18 04:54:17;;;;;;;4.37;2.67;;;11.60;99.90;;;;;;4935155;29;20235;-89
2023/06/18 04:56:49;;;;;;;8.47;2.67;;;11.60;99.90;;;;;;4925009;29;21026;-88
2023/06/18 04:59:21;;;;;;;8.43;2.63;;;11.50;99.90;;;;;;4929661;29;20211;-89
2023/06/18 05:01:53;;;;;;;5.13;2.43;;;11.40;99.90;;;;;;4933838;29;20236;-89
2023/06/18 05:04:24;;;;;;;9.10;2.37;;;11.40;99.90;;;;;;4935964;29;20208;-87
2023/06/18 05:06:56;;;;;;;7.40;2.27;;;11.30;99.90;;;;;;4928241;29;20214;-88
2023/06/18 05:09:32;;;;;;;6.87;2.40;;;11.20;99.90;;;;;;4924621;29;20214;-88
2023/06/18 05:12:03;;;;;;;8.27;2.60;;;11.00;99.90;;;;;;4921471;29;20637;-87
2023/06/18 05:14:35;;;;;;;12.27;2.80;;;11.00;99.90;;;;;;4933423;29;20210;-86
2023/06/18 05:17:07;;;;;;;7.87;2.30;;;10.90;99.90;;;;;;4935483;29;20212;-87
2023/06/18 05:19:38;;;;;;;7.00;2.27;;;10.80;99.90;;;;;;4933855;29;20327;-88
2023/06/18 05:22:10;;;;;;;6.47;2.67;;;10.80;99.90;;;;;;4924307;29;20225;-89
2023/06/18 05:24:43;;;;;;;8.23;3.07;;;10.70;99.90;;;;;;4931737;29;20205;-88
2023/06/18 05:27:14;;;;;;;7.60;2.47;;;10.80;99.90;;;;;;4928307;29;20216;-88
2023/06/18 05:29:46;;;;;;;8.57;2.57;;;10.70;99.90;;;;;;4927220;29;20213;-88
2023/06/18 05:32:17;;;;;;;9.03;2.37;;;10.70;99.90;;;;;;4929747;29;20220;-88
2023/06/18 05:34:48;;;;;;;11.00;2.40;;;10.70;99.90;;;;;;4929835;29;20719;-89
2023/06/18 05:37:19;;;;;;;7.97;2.43;;;10.70;99.90;;;;;;4930626;29;20209;-88
2023/06/18 05:39:53;;;;;;;6.47;2.13;;;10.60;99.90;;;;;;4936499;29;20216;-87
2023/06/18 05:42:24;;;;;;;10.17;2.67;;;10.60;99.90;;;;;;4932504;29;20718;-88
2023/06/18 05:44:56;;;;;;;7.30;2.27;;;10.60;99.90;;;;;;4926794;29;20580;-89
2023/06/18 05:47:28;;;;;;;6.27;1.63;;;10.60;99.90;;;;;;4936396;29;20219;-90
2023/06/18 05:49:59;;;;;;;7.43;2.43;;;10.50;99.90;;;;;;4939835;29;20220;-88
2023/06/18 05:52:30;;;;;;;10.00;3.00;;;10.60;99.90;;;;;;4940355;29;20681;-88
2023/06/18 05:55:06;;;;;;;5.60;2.73;;;10.60;99.90;;;;;;4933817;29;20247;-88
2023/06/18 05:57:38;;;;;;;10.37;3.00;;;10.60;99.90;;;;;;4944839;29;20211;-88
2023/06/18 06:00:11;;;;;;;9.07;2.63;;;10.70;99.90;;;;;;4939360;28;20192;-89
2023/06/18 06:02:43;;;;;;;9.57;2.60;;;10.70;99.90;;;;;;4953163;28;20247;-88
2023/06/18 06:05:15;;;;;;;6.33;2.63;;;10.70;99.90;;;;;;4953064;28;20208;-88
2023/06/18 06:07:45;;;;;;;12.27;2.90;;;10.70;99.90;;;;;;4938231;29;20208;-90
2023/06/18 06:10:20;;;;;;;9.63;3.27;;;10.80;99.90;;;;;;4937482;29;20210;-90
2023/06/18 06:12:53;;;;;;;7.83;3.10;;;10.80;99.90;;;;;;4924226;29;20213;-88
2023/06/18 06:15:25;;;;;;;9.50;2.50;;;10.80;99.90;;;;;;4936342;29;20210;-86
2023/06/18 06:17:56;;;;;;;7.23;2.57;;;10.80;99.90;;;;;;4938337;29;20208;-88
2023/06/18 06:20:27;;;;;;;9.50;2.70;;;10.70;99.90;;;;;;4936589;29;20231;-87
2023/06/18 06:22:59;;;;;;;10.00;3.10;;;10.70;99.90;;;;;;4933423;29;20244;-87
2023/06/18 06:25:32;;;;;;;9.47;3.10;;;10.70;99.90;;;;;;4938232;29;20212;-87
2023/06/18 06:28:04;;;;;;;7.17;2.77;;;10.70;99.90;;;;;;4938289;29;20227;-87
2023/06/18 06:30:35;;;;;;;10.57;3.07;;;10.70;99.90;;;;;;4930058;29;20199;-85
2023/06/18 06:33:06;;;;;;;9.03;2.83;;;10.60;99.90;;;;;;4931808;29;20208;-87
2023/06/18 06:35:38;;;;;;;6.93;2.93;;;10.60;99.90;;;;;;4930176;29;20213;-87
2023/06/18 06:38:09;;;;;;;7.00;2.90;;;10.70;99.90;;;;;;4938993;29;20205;-87
2023/06/18 06:40:43;;;;;;;5.93;2.50;;;10.70;99.90;;;;;;4933987;29;20213;-87
2023/06/18 06:43:15;;;;;;;7.70;2.63;;;10.60;99.90;;;;;;4944274;29;20259;-88
2023/06/18 06:45:46;;;;;;;7.07;3.07;;;10.50;99.90;;;;;;4938513;29;20208;-87
2023/06/18 06:48:17;;;;;;;10.70;3.50;;;10.60;99.90;;;;;;4947193;29;20217;-89
2023/06/18 06:50:49;;;;;;;9.10;2.80;;;10.70;99.90;;;;;;4951681;29;20204;-89
2023/06/18 06:53:20;;;;;;;6.80;2.63;;;10.60;99.90;;;;;;4941308;29;20201;-87
2023/06/18 06:55:54;;;;;;;8.07;2.53;;;10.70;99.90;;;;;;4923952;29;20221;-88
2023/06/18 06:58:25;;;;;;;7.67;2.67;;;10.70;99.90;;;;;;4923246;29;20220;-89
2023/06/18 07:00:57;;;;;;;4.93;2.53;;;10.70;99.90;;;;;;4938673;29;20223;-89
2023/06/18 07:03:28;;;;;;;6.80;2.23;;;10.50;99.90;;;;;;4937299;29;20787;-88
2023/06/18 07:06:03;;;;;;;8.13;2.50;;;10.50;99.90;;;;;;4938019;29;20208;-89
2023/06/18 07:08:35;;;;;;;5.93;2.17;;;10.60;99.90;;;;;;4937539;29;20208;-88
2023/06/18 07:11:09;;;;;;;9.97;2.63;;;10.60;99.90;;;;;;4928226;29;20205;-88
2023/06/18 07:13:42;;;;;;;10.27;2.67;;;10.70;99.90;;;;;;4938012;29;20211;-88
2023/06/18 07:16:14;;;;;;;6.90;2.47;;;10.60;99.90;;;;;;4935403;29;20212;-88
2023/06/18 07:18:45;;;;;;;7.07;2.13;;;10.60;99.90;;;;;;4935901;29;20571;-86
2023/06/18 07:21:17;;;;;;;5.17;2.37;;;10.60;99.90;;;;;;4934156;29;20657;-86
2023/06/18 07:23:48;;;;;;;7.33;3.13;;;10.60;99.90;;;;;;4936773;29;20244;-86
2023/06/18 07:26:22;;;;;;;6.73;2.77;;;10.60;99.90;;;;;;4928211;29;20215;-87
2023/06/18 07:28:54;;;;;;;5.73;2.57;;;10.60;99.90;;;;;;4934970;29;20238;-87
2023/06/18 07:31:26;;;;;;;6.67;3.00;;;10.60;99.90;;;;;;4931524;29;20232;-88
2023/06/18 07:33:57;;;;;;;8.43;2.87;;;10.70;99.90;;;;;;4932545;29;20209;-87
2023/06/18 07:36:29;;;;;;;7.43;2.70;;;10.60;99.90;;;;;;4931202;29;20223;-86
2023/06/18 07:39:01;;;;;;;6.60;3.00;;;10.60;99.90;;;;;;4934077;29;20555;-86
2023/06/18 07:41:34;;;;;;;6.97;3.23;;;10.60;99.90;;;;;;4919537;29;20216;-87
2023/06/18 07:44:06;;;;;;;6.93;2.50;;;10.50;99.90;;;;;;4926105;29;20232;-86
2023/06/18 07:46:38;;;;;;;10.27;2.70;;;10.60;99.90;;;;;;4934861;29;20219;-86
2023/06/18 07:49:10;;;;;;;5.50;2.53;;;10.60;99.90;;;;;;4934725;29;20232;-87
2023/06/18 07:51:42;;;;;;;5.37;2.67;;;10.60;99.90;;;;;;4936624;29;20209;-87
2023/06/18 07:54:13;;;;;;;4.37;2.33;;;10.60;99.90;;;;;;4938049;29;20703;-88
2023/06/18 07:56:46;;;;;;;6.37;2.00;;;10.60;99.90;;;;;;4930298;29;20209;-88
2023/06/18 07:59:18;;;;;;;6.63;2.47;;;10.60;99.90;;;;;;4918092;29;20213;-88
2023/06/18 08:01:50;;;;;;;4.97;2.33;;;10.50;99.90;;;;;;4932220;29;20680;-88
2023/06/18 08:04:22;;;;;;;6.07;2.00;;;10.50;99.90;;;;;;4944629;29;20244;-88
2023/06/18 08:06:54;;;;;;;12.23;3.03;;;10.50;99.90;;;;;;4952483;28;20253;-90
2023/06/18 08:09:27;;;;;;;3.30;2.00;;;10.50;99.90;;;;;;4939956;29;20284;-89
2023/06/18 08:12:01;;;;;;;5.53;2.17;;;10.60;99.90;;;;;;4933402;29;20291;-88
2023/06/18 08:14:32;;;;;;;4.83;2.27;;;10.40;99.90;;;;;;4936797;29;20204;-89
2023/06/18 08:17:03;;;;;;;5.47;1.93;;;10.40;99.90;;;;;;4926878;29;20216;-88
2023/06/18 08:19:34;;;;;;;8.50;2.50;;;10.40;99.90;;;;;;4929483;29;20309;-89
2023/06/18 08:22:08;;;;;;;4.03;2.13;;;10.40;99.90;;;;;;4937079;29;20212;-88
2023/06/18 08:24:39;;;;;;;4.27;2.20;;;10.40;99.90;;;;;;4937189;29;20243;-89
2023/06/18 08:27:15;;;;;;;7.33;2.17;;;10.40;99.90;;;;;;4926509;29;20201;-88
2023/06/18 08:29:46;;;;;;;5.97;2.40;;;10.30;99.90;;;;;;4926463;29;20208;-88
2023/06/18 08:32:17;;;;;;;5.13;2.33;;;10.30;99.90;;;;;;4927150;29;20209;-88
2023/06/18 08:34:48;;;;;;;6.67;2.77;;;10.30;99.90;;;;;;4924476;29;20208;-87
2023/06/18 08:37:19;;;;;;;6.63;2.70;;;10.40;99.90;;;;;;4930107;29;20204;-87
2023/06/18 08:39:50;;;;;;;8.83;2.70;;;10.40;99.90;;;;;;4929457;29;20224;-88
2023/06/18 08:42:23;;;;;;;6.00;2.30;;;10.40;99.90;;;;;;4931838;29;20692;-87
2023/06/18 08:44:54;;;;;;;4.40;2.00;;;10.40;99.90;;;;;;4927500;29;20208;-87
2023/06/18 08:47:26;;;;;;;5.93;2.40;;;10.40;99.90;;;;;;4933706;29;20287;-87
2023/06/18 08:50:00;;;;;;;5.90;2.60;;;10.50;99.90;;;;;;4933106;29;20208;-87
2023/06/18 08:52:32;;;;;;;6.00;2.50;;;10.40;99.90;;;;;;4931800;29;20543;-87
2023/06/18 08:55:09;;;;;;;4.27;2.67;;;10.40;99.90;;;;;;4931243;29;20232;-89
2023/06/18 08:57:48;;;;;;;6.63;2.30;;;10.40;99.90;;;;;;4949652;29;20218;-88
2023/06/18 09:00:20;;;;;;;6.10;2.73;;;10.40;99.90;;;;;;4917513;29;20208;-89
2023/06/18 09:02:53;;;;;;;5.30;2.60;;;10.30;99.90;;;;;;4917128;29;20205;-89
2023/06/18 09:05:26;;;;;;;4.07;2.03;;;10.40;99.90;;;;;;4924832;29;20201;-89
2023/06/18 09:07:57;;;;;;;6.23;2.43;;;10.50;99.90;;;;;;4915958;29;20201;-89
2023/06/18 09:10:29;;;;;;;4.10;1.90;;;10.40;99.90;;;;;;4934405;29;20295;-89
2023/06/18 09:13:04;;;;;;;6.80;2.40;;;10.40;99.90;;;;;;4916474;29;20231;-89
2023/06/18 09:15:35;;;;;;;5.93;2.23;;;10.40;99.90;;;;;;4589299;28;9999848;-89
2023/06/18 09:18:08;;;;;;;5.57;2.43;;;10.50;99.90;;;;;;4919811;29;20215;-87
2023/06/18 09:20:41;;;;;;;6.07;2.40;;;10.40;99.90;;;;;;4934995;29;20263;-88
2023/06/18 09:23:13;;;;;;;3.70;2.30;;;10.30;99.90;;;;;;4934330;29;20232;-89
2023/06/18 09:25:51;;;;;;;4.93;2.30;;;10.30;99.90;;;;;;4934700;29;20268;-89
2023/06/18 09:28:26;;;;;;;4.63;2.10;;;10.30;99.90;;;;;;4922634;29;20205;-87
2023/06/18 09:31:00;;;;;;;5.50;2.47;;;10.40;99.90;;;;;;4920593;29;20539;-87
2023/06/18 09:33:33;;;;;;;5.97;2.33;;;10.30;99.90;;;;;;4930257;29;20212;-86
2023/06/18 09:36:05;;;;;;;7.53;2.37;;;10.30;99.90;;;;;;4930581;29;20214;-86
2023/06/18 09:38:38;;;;;;;5.00;2.40;;;10.20;99.90;;;;;;4931571;29;20215;-85
2023/06/18 09:41:14;;;;;;;6.00;1.80;;;10.30;99.90;;;;;;4930893;29;20533;-88
2023/06/18 09:43:49;;;;;;;5.73;2.00;;;10.30;99.90;;;;;;4933789;29;20624;-87
2023/06/18 09:46:25;;;;;;;8.20;1.80;;;10.30;99.90;;;;;;4927788;29;20219;-87
2023/06/18 09:48:56;;;;;;;6.67;1.97;;;10.30;99.90;;;;;;4919559;29;20724;-87
2023/06/18 09:51:28;;;;;;;6.73;1.87;;;10.30;99.90;;;;;;4933754;29;20211;-87
2023/06/18 09:54:00;;;;;;;5.43;1.90;;;10.20;99.90;;;;;;4941923;29;20215;-86
2023/06/18 09:56:32;;;;;;;7.10;2.00;;;10.20;99.90;;;;;;4925139;29;20292;-87
2023/06/18 09:59:06;;;;;;;4.73;1.97;;;10.20;99.90;;;;;;4927181;29;20284;-87
2023/06/18 10:01:50;;;;;;;5.97;1.80;;;10.30;99.90;;;;;;4926315;29;20582;-89
2023/06/18 10:04:21;;;;;;;5.43;1.80;;;10.30;99.90;;;;;;4916630;29;20235;-88
2023/06/18 10:06:55;;;;;;;6.33;2.17;;;10.30;99.90;;;;;;4940527;29;20237;-89
2023/06/18 10:09:30;;;;;;;6.43;2.20;;;10.30;99.90;;;;;;4937757;29;20527;-89
2023/06/18 10:12:03;;;;;;;6.10;2.00;;;10.40;99.90;;;;;;4928643;29;20209;-89
2023/06/18 10:14:38;;;;;;;3.47;2.03;;;10.40;99.90;;;;;;4918425;29;20209;-89
2023/06/18 10:17:11;;;;;;;3.60;1.60;;;10.30;99.90;;;;;;4949665;29;20233;-90
2023/06/18 10:19:48;;;;;;;3.90;1.63;;;10.40;99.90;;;;;;4928135;28;20212;-89
2023/06/18 10:22:22;;;;;;;5.07;1.53;;;10.30;99.90;;;;;;4924678;29;20220;-88
2023/06/18 10:25:03;;;;;;;2.80;1.80;;;10.30;99.90;;;;;;4940278;29;20241;-88
2023/06/18 10:27:35;;;;;;;4.63;2.00;;;10.20;99.90;;;;;;4923213;29;20295;-89
2023/06/18 10:30:10;;;;;;;6.20;2.10;;;10.20;99.90;;;;;;4929876;29;20252;-89
2023/06/18 10:32:43;;;;;;;3.53;1.67;;;10.20;99.90;;;;;;4935140;29;20405;-88
2023/06/18 10:35:17;;;;;;;4.87;1.57;;;10.20;99.90;;;;;;4939265;29;20212;-87
2023/06/18 10:37:49;;;;;;;4.83;1.70;;;10.20;99.90;;;;;;4928450;29;20231;-88
2023/06/18 10:40:22;;;;;;;6.43;2.30;;;10.20;99.90;;;;;;4930519;29;20605;-87
2023/06/18 10:43:05;;;;;;;6.13;2.13;;;10.20;99.90;;;;;;4936867;29;20225;-88
2023/06/18 10:45:40;;;;;;;2.93;1.87;;;10.20;99.90;;;;;;4927736;29;20239;-87
2023/06/18 10:48:19;;;;;;;4.17;1.80;;;10.20;99.90;;;;;;4935676;29;20213;-87
2023/06/18 10:51:15;;;;;;;3.03;1.60;;;10.20;99.90;;;;;;4936203;29;20212;-86
2023/06/18 10:53:47;;;;;;;9.03;1.90;;;10.20;99.90;;;;;;4932214;29;20211;-87
2023/06/18 10:56:19;;;;;;;3.70;1.63;;;10.20;99.90;;;;;;4936158;29;20705;-87
2023/06/18 10:58:52;;;;;;;4.17;1.60;;;10.20;99.90;;;;;;4931117;29;20214;-86
2023/06/18 11:01:29;;;;;;;5.87;1.97;;;10.10;99.90;;;;;;4935054;29;20208;-87
2023/06/18 11:04:07;;;;;;;7.00;1.90;;;10.10;99.90;;;;;;4936862;29;20235;-85
2023/06/18 11:06:40;;;;;;;4.40;2.27;;;10.10;99.90;;;;;;4925128;29;20207;-88
2023/06/18 11:09:16;;;;;;;8.97;2.30;;;10.10;99.90;;;;;;4944550;29;20208;-88
2023/06/18 11:11:52;;;;;;;4.23;2.17;;;10.10;99.90;;;;;;4937206;29;20211;-89
2023/06/18 11:14:29;;;;;;;8.87;2.43;;;10.00;99.90;;;;;;4935458;29;20208;-89
2023/06/18 11:17:24;;;;;;;6.80;2.13;;;10.00;99.90;;;;;;4941000;29;20276;-89
2023/06/18 11:19:57;;;;;;;3.50;1.77;;;9.90;99.90;;;;;;4939855;29;20208;-89
2023/06/18 11:22:28;;;;;;;6.07;2.43;;;9.90;99.90;;;;;;4929968;29;20215;-89
2023/06/18 11:25:01;;;;;;;7.77;2.20;;;9.80;99.90;;;;;;4933585;29;20668;-89
2023/06/18 11:27:34;;;;;;;7.83;3.17;;;9.70;99.90;;;;;;4936495;29;20679;-92
2023/06/18 11:30:08;;;;;;;6.83;1.57;;;9.70;99.90;;;;;;4937678;29;20200;-89
2023/06/18 11:32:43;;;;;;;4.47;1.70;;;9.70;99.90;;;;;;4925463;29;20239;-88
2023/06/18 11:35:16;;;;;;;2.93;1.67;;;9.70;99.90;;;;;;4931439;29;20259;-89
2023/06/18 11:37:47;;;;;;;4.63;1.80;;;9.60;99.90;;;;;;4924520;28;20213;-87
2023/06/18 11:40:18;;;;;;;2.97;1.80;;;9.60;99.90;;;;;;4586819;28;10000109;-87
2023/06/18 11:42:51;;;;;;;5.73;2.10;;;9.60;99.90;;;;;;4923369;29;20220;-87
2023/06/18 11:45:23;;;;;;;4.47;1.90;;;9.60;99.90;;;;;;4922213;29;20268;-88
2023/06/18 11:47:58;;;;;;;5.47;1.90;;;9.60;99.90;;;;;;4923316;29;20209;-86
2023/06/18 11:50:30;;;;;;;2.50;1.90;;;9.60;99.90;;;;;;4915999;29;20204;-88
2023/06/18 11:53:06;;;;;;;6.30;1.73;;;9.40;99.90;;;;;;4922698;29;20208;-86
2023/06/18 11:55:38;;;;;;;5.10;1.97;;;9.40;99.90;;;;;;4936575;29;20716;-88
2023/06/18 11:58:10;;;;;;;7.87;1.90;;;9.20;99.90;;;;;;4926631;29;20201;-89
2023/06/18 12:00:42;;;;;;;4.00;1.93;;;9.10;99.90;;;;;;4935473;29;20615;-89
2023/06/18 12:03:17;;;;;;;5.33;2.10;;;9.00;99.90;;;;;;4936944;29;20209;-88
2023/06/18 12:05:50;;;;;;;3.80;1.93;;;9.10;99.90;;;;;;4928887;29;20242;-88
2023/06/18 12:08:21;;;;;;;4.77;2.00;;;9.00;99.90;;;;;;4941114;29;20273;-87
2023/06/18 12:10:55;;;;;;;3.50;2.10;;;8.90;99.90;;;;;;4952848;29;20201;-89
2023/06/18 12:13:34;;;;;;;6.00;2.37;;;8.80;99.90;;;;;;4945079;29;20207;-89
2023/06/18 12:16:11;;;;;;;5.67;2.07;;;8.80;99.90;;;;;;4938276;29;20216;-89
2023/06/18 12:18:46;;;;;;;4.43;1.80;;;8.70;99.90;;;;;;4926514;29;20216;-91
2023/06/18 12:21:17;;;;;;;3.67;1.93;;;8.80;99.90;;;;;;4937397;29;20223;-90
2023/06/18 12:23:49;;;;;;;4.53;1.90;;;8.70;99.90;;;;;;4938667;29;20235;-90
2023/06/18 12:26:20;;;;;;;5.47;1.80;;;8.70;99.90;;;;;;4933130;29;20296;-90
2023/06/18 12:28:53;;;;;;;4.27;2.00;;;8.60;99.90;;;;;;4929662;29;20216;-90
2023/06/18 12:31:25;;;;;;;3.17;1.80;;;8.70;99.90;;;;;;4938739;29;20231;-90
2023/06/18 12:33:59;;;;;;;2.90;1.80;;;8.60;99.90;;;;;;4951248;29;20350;-88
2023/06/18 12:36:30;;;;;;;5.63;2.03;;;8.60;99.90;;;;;;4947070;29;20224;-89
2023/06/18 12:39:01;;;;;;;3.57;1.70;;;8.70;99.90;;;;;;4949520;29;20267;-89
2023/06/18 12:41:35;;;;;;;4.70;1.90;;;8.70;99.90;;;;;;4950914;28;20205;-89
2023/06/18 12:44:07;;;;;;;3.53;1.83;;;8.70;99.90;;;;;;4924666;29;20567;-89
2023/06/18 12:46:39;;;;;;;4.90;1.87;;;8.70;99.90;;;;;;4925460;29;20278;-88
2023/06/18 12:49:17;;;;;;;5.27;1.80;;;8.80;99.90;;;;;;4935770;29;20216;-88
2023/06/18 12:51:53;;;;;;;4.93;1.73;;;8.80;99.90;;;;;;4936584;29;20288;-88
2023/06/18 12:54:26;;;;;;;4.60;2.00;;;8.90;99.90;;;;;;4917657;29;20688;-88
2023/06/18 12:56:58;;;;;;;5.03;2.20;;;9.00;99.90;;;;;;4920214;29;20209;-88
2023/06/18 12:59:30;;;;;;;3.70;1.63;;;9.00;99.90;;;;;;4915942;29;20212;-88
2023/06/18 13:02:01;;;;;;;3.43;1.67;;;9.00;99.90;;;;;;4924999;29;20288;-88
2023/06/18 13:04:38;;;;;;;2.90;1.73;;;9.10;99.90;;;;;;4916987;29;20240;-88
2023/06/18 13:07:09;;;;;;;4.27;2.00;;;9.10;99.90;;;;;;4925126;29;20204;-87
2023/06/18 13:09:42;;;;;;;5.50;2.10;;;9.20;99.90;;;;;;4928975;29;20205;-88
2023/06/18 13:12:16;;;;;;;3.23;1.80;;;9.30;99.90;;;;;;4930991;29;20287;-87
2023/06/18 13:14:47;;;;;;;2.53;1.67;;;9.30;99.90;;;;;;4921255;29;20317;-87
2023/06/18 13:17:18;;;;;;;2.20;1.20;;;9.30;99.90;;;;;;4935224;29;20653;-89